Aviation Digital Data Service (ADDS)

Output produced by METARs form (1416 UTC 08 May 2021)
found at http://aviationweather.gov/metar/data/
 
KCLL 081120Z 0812/0912 18007KT P6SM BKN025 
     FM081400 17013G23KT P6SM SCT035 SCT250 
     FM081800 17017G27KT P6SM SCT035 
     FM090400 17016KT P6SM BKN025 
     FM090900 17015KT P6SM BKN015